createdAt,value
2022-08-23T00:00:54.228Z,0.00
2022-08-23T00:01:52.568Z,0.00
2022-08-23T00:02:53.251Z,0.00
2022-08-23T00:03:52.564Z,0.00
2022-08-23T00:05:07.328Z,0.00
2022-08-23T00:05:53.527Z,0.00
2022-08-23T00:06:52.625Z,0.00
2022-08-23T00:07:52.484Z,0.00
2022-08-23T00:08:52.510Z,0.00
2022-08-23T00:09:52.511Z,0.00
2022-08-23T00:10:52.445Z,0.00
2022-08-23T00:11:52.489Z,0.00
2022-08-23T00:12:52.431Z,0.00
2022-08-23T00:13:53.093Z,0.00
2022-08-23T00:14:52.420Z,0.00
2022-08-23T00:15:53.060Z,0.00
2022-08-23T00:16:52.380Z,0.00
2022-08-23T00:17:53.342Z,0.00
2022-08-23T00:18:52.380Z,0.00
2022-08-23T00:19:52.349Z,0.00
2022-08-23T00:20:52.390Z,0.00
2022-08-23T00:21:52.366Z,0.00
2022-08-23T00:22:52.982Z,0.00
2022-08-23T00:23:52.973Z,0.00
2022-08-23T00:24:52.303Z,0.00
2022-08-23T00:25:52.299Z,0.00
2022-08-23T00:26:52.968Z,0.00
2022-08-23T00:27:52.282Z,0.00
2022-08-23T00:28:52.297Z,0.00
2022-08-23T00:29:52.297Z,0.00
2022-08-23T00:30:52.247Z,0.00
2022-08-23T00:31:52.890Z,0.00
2022-08-23T00:32:52.887Z,0.00
2022-08-23T00:33:55.663Z,0.00
2022-08-23T00:34:52.178Z,0.00
2022-08-23T00:35:52.835Z,0.00
2022-08-23T00:36:52.846Z,0.00
2022-08-23T00:38:32.262Z,0.00
2022-08-23T00:38:53.971Z,0.00
2022-08-23T00:39:52.165Z,0.00
2022-08-23T00:40:52.136Z,0.00
2022-08-23T00:41:52.177Z,0.00
2022-08-23T00:42:52.152Z,0.00
2022-08-23T00:43:52.090Z,0.00
2022-08-23T00:44:52.164Z,0.00
2022-08-23T00:45:52.080Z,0.00
2022-08-23T00:46:52.080Z,0.00
2022-08-23T00:47:52.175Z,0.00
2022-08-23T00:48:52.733Z,0.00
2022-08-23T00:49:52.701Z,0.00
2022-08-23T00:50:52.693Z,0.00
2022-08-23T00:51:53.240Z,0.00
2022-08-23T00:52:51.989Z,0.00
2022-08-23T00:53:52.657Z,0.00
2022-08-23T00:54:52.650Z,0.00
2022-08-23T00:55:52.634Z,0.00
2022-08-23T00:56:57.720Z,0.00
2022-08-23T00:57:52.627Z,0.00
2022-08-23T00:58:51.944Z,0.00
2022-08-23T00:59:51.934Z,0.00
2022-08-23T01:00:53.868Z,0.00
2022-08-23T01:01:52.675Z,0.00
2022-08-23T01:02:52.568Z,0.00
2022-08-23T01:04:03.978Z,0.00
2022-08-23T01:04:52.900Z,0.00
2022-08-23T01:05:51.906Z,0.00
2022-08-23T01:06:52.880Z,0.00
2022-08-23T01:07:51.867Z,0.00
2022-08-23T01:08:52.506Z,0.00
2022-08-23T01:09:51.901Z,0.00
2022-08-23T01:10:51.826Z,0.00
2022-08-23T01:11:52.467Z,0.00
2022-08-23T01:12:51.789Z,0.00
2022-08-23T01:13:52.444Z,0.00
2022-08-23T01:14:52.449Z,0.00
2022-08-23T01:15:51.789Z,0.00
2022-08-23T01:16:51.789Z,0.00
2022-08-23T01:17:52.399Z,0.00
2022-08-23T01:18:52.399Z,0.00
2022-08-23T01:19:52.396Z,0.00
2022-08-23T01:20:51.717Z,0.00
2022-08-23T01:21:52.360Z,0.00
2022-08-23T01:22:51.701Z,0.00
2022-08-23T01:23:51.732Z,0.00
2022-08-23T01:25:06.097Z,0.00
2022-08-23T01:25:53.563Z,0.00
2022-08-23T01:26:52.313Z,0.00
2022-08-23T01:27:52.299Z,0.00
2022-08-23T01:28:52.306Z,0.00
2022-08-23T01:29:52.274Z,0.00
2022-08-23T01:30:52.267Z,0.00
2022-08-23T01:31:51.584Z,0.00
2022-08-23T01:32:51.618Z,0.00
2022-08-23T01:33:52.351Z,0.00
2022-08-23T01:34:52.218Z,0.00
2022-08-23T01:35:52.224Z,0.00
2022-08-23T01:36:51.544Z,0.00
2022-08-23T01:37:51.500Z,0.00
2022-08-23T01:38:51.516Z,0.00
2022-08-23T01:39:51.533Z,0.00
2022-08-23T01:40:52.147Z,0.00
2022-08-23T01:41:51.494Z,0.00
2022-08-23T01:42:51.456Z,0.00
2022-08-23T01:43:51.459Z,0.00
2022-08-23T01:44:51.501Z,0.00
2022-08-23T01:45:51.447Z,0.00
2022-08-23T01:46:53.082Z,0.00
2022-08-23T01:47:53.838Z,0.00
2022-08-23T01:48:51.402Z,0.00
2022-08-23T01:49:51.382Z,0.00
2022-08-23T01:50:52.051Z,0.00
2022-08-23T01:51:51.412Z,0.00
2022-08-23T01:52:51.520Z,0.00
2022-08-23T01:53:53.321Z,0.00
2022-08-23T01:54:51.356Z,0.00
2022-08-23T01:55:51.341Z,0.00
2022-08-23T01:56:51.401Z,0.00
2022-08-23T01:57:51.323Z,0.00
2022-08-23T01:58:51.402Z,0.00
2022-08-23T01:59:51.263Z,0.00
2022-08-23T02:00:51.263Z,0.00
2022-08-23T02:01:51.364Z,0.00
2022-08-23T02:02:51.924Z,0.00
2022-08-23T02:03:58.897Z,0.00
2022-08-23T02:04:52.644Z,0.00
2022-08-23T02:06:51.208Z,0.00
2022-08-23T02:07:52.658Z,0.00
2022-08-23T02:08:52.179Z,0.00
2022-08-23T02:09:51.844Z,0.00
2022-08-23T02:10:51.816Z,0.00
2022-08-23T02:11:51.816Z,0.00
2022-08-23T02:12:51.138Z,0.00
2022-08-23T02:13:51.140Z,0.00
2022-08-23T02:14:53.546Z,0.00
2022-08-23T02:15:51.401Z,0.00
2022-08-23T02:16:59.984Z,0.00
2022-08-23T02:17:52.068Z,0.00
2022-08-23T02:18:51.098Z,0.00
2022-08-23T02:19:51.738Z,0.00
2022-08-23T02:20:51.720Z,0.00
2022-08-23T02:21:51.711Z,0.00
2022-08-23T02:22:51.650Z,0.00
2022-08-23T02:23:53.472Z,0.00
2022-08-23T02:24:51.684Z,0.00
2022-08-23T02:25:51.671Z,0.00
2022-08-23T02:26:56.830Z,0.00
2022-08-23T02:27:52.273Z,0.00
2022-08-23T02:28:50.973Z,0.00
2022-08-23T02:29:52.762Z,0.00
2022-08-23T02:30:50.940Z,0.00
2022-08-23T02:31:51.646Z,0.00
2022-08-23T02:32:51.604Z,0.00
2022-08-23T02:33:50.942Z,0.00
2022-08-23T02:35:05.399Z,0.00
2022-08-23T02:35:51.885Z,0.00
2022-08-23T02:36:51.549Z,0.00
2022-08-23T02:37:51.541Z,0.00
2022-08-23T02:38:50.836Z,0.00
2022-08-23T02:39:50.954Z,0.00
2022-08-23T02:40:52.926Z,0.00
2022-08-23T02:41:52.497Z,0.00
2022-08-23T02:42:51.499Z,0.00
2022-08-23T02:43:53.259Z,0.00
2022-08-23T02:44:51.466Z,0.00
2022-08-23T02:45:51.481Z,0.00
2022-08-23T02:46:51.440Z,0.00
2022-08-23T02:47:50.747Z,0.00
2022-08-23T02:48:51.418Z,0.00
2022-08-23T02:49:51.408Z,0.00
2022-08-23T02:50:51.405Z,0.00
2022-08-23T02:51:51.583Z,0.00
2022-08-23T02:52:50.700Z,0.00
2022-08-23T02:53:51.360Z,0.00
2022-08-23T02:54:51.372Z,0.00
2022-08-23T02:55:51.350Z,0.00
2022-08-23T02:56:51.339Z,0.00
2022-08-23T02:57:51.325Z,0.00
2022-08-23T02:58:54.055Z,0.00
2022-08-23T02:59:51.332Z,0.00
2022-08-23T03:00:50.606Z,0.00
2022-08-23T03:01:50.602Z,0.00
2022-08-23T03:02:52.041Z,0.00
2022-08-23T03:03:51.263Z,0.00
2022-08-23T03:04:51.253Z,0.00
2022-08-23T03:05:50.552Z,0.00
2022-08-23T03:06:51.222Z,0.00
2022-08-23T03:07:51.214Z,0.00
2022-08-23T03:08:50.523Z,0.00
2022-08-23T03:09:51.274Z,0.00
2022-08-23T03:10:52.328Z,0.00
2022-08-23T03:11:51.174Z,0.00
2022-08-23T03:12:51.215Z,0.00
2022-08-23T03:13:54.087Z,0.00
2022-08-23T03:14:50.484Z,0.00
2022-08-23T03:15:50.496Z,0.00
2022-08-23T03:16:50.456Z,0.00
2022-08-23T03:17:50.420Z,0.00
2022-08-23T03:18:50.448Z,0.00
2022-08-23T03:19:51.085Z,0.00
2022-08-23T03:20:50.398Z,0.00
2022-08-23T03:21:50.438Z,0.00
2022-08-23T03:22:54.552Z,0.00
2022-08-23T03:23:51.039Z,0.00
2022-08-23T03:24:51.029Z,0.00
2022-08-23T03:25:50.329Z,0.00
2022-08-23T03:26:51.008Z,0.00
2022-08-23T03:27:51.079Z,0.00
2022-08-23T03:28:50.990Z,0.00
2022-08-23T03:29:51.712Z,0.00
2022-08-23T03:30:50.960Z,0.00
2022-08-23T03:31:50.274Z,0.00
2022-08-23T03:32:50.289Z,0.00
2022-08-23T03:33:50.961Z,0.00
2022-08-23T03:34:50.310Z,0.00
2022-08-23T03:35:50.912Z,0.00
2022-08-23T03:36:50.900Z,0.00
2022-08-23T03:37:55.045Z,0.00
2022-08-23T03:38:50.899Z,0.00
2022-08-23T03:39:50.252Z,0.00
2022-08-23T03:40:50.166Z,0.00
2022-08-23T03:41:50.843Z,0.00
2022-08-23T03:42:50.156Z,0.00
2022-08-23T03:43:50.820Z,0.00
2022-08-23T03:44:51.063Z,0.00
2022-08-23T03:45:52.606Z,0.00
2022-08-23T03:46:50.786Z,0.00
2022-08-23T03:47:50.087Z,0.00
2022-08-23T03:48:50.098Z,0.00
2022-08-23T03:49:50.766Z,0.00
2022-08-23T03:50:50.745Z,0.00
2022-08-23T03:51:50.727Z,0.00
2022-08-23T03:52:50.037Z,0.00
2022-08-23T03:53:50.717Z,0.00
2022-08-23T03:54:50.048Z,0.00
2022-08-23T03:55:50.704Z,0.00
2022-08-23T03:56:50.679Z,0.00
2022-08-23T03:57:50.667Z,0.00
2022-08-23T03:58:52.639Z,0.00
2022-08-23T03:59:53.249Z,0.00
2022-08-23T04:00:56.582Z,0.00
2022-08-23T04:01:50.682Z,0.00
2022-08-23T04:02:49.941Z,0.00
2022-08-23T04:03:50.820Z,0.00
2022-08-23T04:04:53.890Z,0.00
2022-08-23T04:05:51.752Z,0.00
2022-08-23T04:06:50.051Z,0.00
2022-08-23T04:07:51.164Z,0.00
2022-08-23T04:08:50.551Z,0.00
2022-08-23T04:09:54.861Z,0.00
2022-08-23T04:10:49.845Z,0.00
2022-08-23T04:11:50.155Z,0.00
2022-08-23T04:12:49.859Z,0.00
2022-08-23T04:13:50.757Z,0.00
2022-08-23T04:14:49.813Z,0.00
2022-08-23T04:15:49.867Z,0.00
2022-08-23T04:16:50.464Z,0.00
2022-08-23T04:17:49.848Z,0.00
2022-08-23T04:18:49.797Z,5.62
2022-08-23T04:19:50.456Z,5.62
2022-08-23T04:20:49.761Z,5.62
2022-08-23T04:21:49.815Z,5.62
2022-08-23T04:22:50.406Z,5.62
2022-08-23T04:23:50.394Z,5.62
2022-08-23T04:24:49.739Z,5.62
2022-08-23T04:25:49.707Z,5.62
2022-08-23T04:26:50.357Z,11.25
2022-08-23T04:27:49.758Z,11.25
2022-08-23T04:28:50.533Z,11.25
2022-08-23T04:29:50.318Z,11.25
2022-08-23T04:30:49.679Z,11.25
2022-08-23T04:31:50.308Z,11.25
2022-08-23T04:32:49.635Z,16.88
2022-08-23T04:33:50.916Z,16.88
2022-08-23T04:34:51.342Z,16.88
2022-08-23T04:35:49.594Z,16.88
2022-08-23T04:36:51.853Z,16.88
2022-08-23T04:37:51.230Z,22.50
2022-08-23T04:38:50.228Z,22.50
2022-08-23T04:39:51.872Z,22.50
2022-08-23T04:40:50.211Z,28.12
2022-08-23T04:41:50.219Z,28.12
2022-08-23T04:42:50.190Z,28.12
2022-08-23T04:43:50.174Z,33.75
2022-08-23T04:44:50.162Z,33.75
2022-08-23T04:45:50.153Z,33.75
2022-08-23T04:46:49.464Z,39.38
2022-08-23T04:47:50.146Z,39.38
2022-08-23T04:48:50.124Z,45.00
2022-08-23T04:49:50.373Z,45.00
2022-08-23T04:50:49.417Z,50.62
2022-08-23T04:51:53.429Z,50.62
2022-08-23T04:52:49.437Z,50.62
2022-08-23T04:53:50.067Z,56.25
2022-08-23T04:54:50.059Z,56.25
2022-08-23T04:55:50.046Z,61.88
2022-08-23T04:56:51.873Z,61.88
2022-08-23T04:57:50.021Z,61.88
2022-08-23T04:58:50.032Z,67.50
2022-08-23T04:59:49.358Z,67.50
2022-08-23T05:00:51.511Z,73.12
2022-08-23T05:01:49.353Z,73.12
2022-08-23T05:02:49.299Z,78.75
2022-08-23T05:03:49.321Z,78.75
2022-08-23T05:04:49.318Z,78.75
2022-08-23T05:05:49.298Z,84.38
2022-08-23T05:06:49.939Z,84.38
2022-08-23T05:07:51.679Z,90.00
2022-08-23T05:08:49.226Z,90.00
2022-08-23T05:09:49.259Z,95.62
2022-08-23T05:10:49.890Z,95.62
2022-08-23T05:11:49.880Z,95.62
2022-08-23T05:12:49.878Z,101.25
2022-08-23T05:13:49.223Z,101.25
2022-08-23T05:14:51.106Z,106.88
2022-08-23T05:15:49.217Z,106.88
2022-08-23T05:16:49.132Z,106.88
2022-08-23T05:17:49.812Z,106.88
2022-08-23T05:18:49.804Z,112.50
2022-08-23T05:19:49.793Z,118.12
2022-08-23T05:20:49.787Z,118.12
2022-08-23T05:21:49.126Z,118.12
2022-08-23T05:22:49.066Z,123.75
2022-08-23T05:23:51.067Z,123.75
2022-08-23T05:24:52.025Z,129.38
2022-08-23T05:25:51.604Z,129.38
2022-08-23T05:26:49.037Z,135.00
2022-08-23T05:27:49.095Z,135.00
2022-08-23T05:28:49.712Z,140.62
2022-08-23T05:29:49.006Z,140.62
2022-08-23T05:30:56.367Z,146.25
2022-08-23T05:31:50.896Z,151.88
2022-08-23T05:32:49.661Z,157.50
2022-08-23T05:33:48.988Z,157.50
2022-08-23T05:34:49.640Z,168.75
2022-08-23T05:35:48.947Z,180.00
2022-08-23T05:36:56.033Z,180.00
2022-08-23T05:37:49.916Z,191.25
2022-08-23T05:38:48.909Z,208.12
2022-08-23T05:39:48.929Z,219.38
2022-08-23T05:40:49.560Z,258.75
2022-08-23T05:41:49.901Z,337.50
2022-08-23T05:42:49.553Z,551.25
2022-08-23T05:43:49.535Z,871.88
2022-08-23T05:44:49.533Z,1040.62
2022-08-23T05:45:48.890Z,1113.75
2022-08-23T05:46:49.502Z,1091.25
2022-08-23T05:47:49.828Z,1063.12
2022-08-23T05:48:48.801Z,1057.50
2022-08-23T05:49:48.793Z,1035.00
2022-08-23T05:50:49.462Z,1001.25
2022-08-23T05:51:51.714Z,967.50
2022-08-23T05:52:51.188Z,950.62
2022-08-23T05:53:50.692Z,1001.25
2022-08-23T05:54:48.724Z,973.12
2022-08-23T05:55:49.402Z,922.50
2022-08-23T05:56:49.392Z,911.25
2022-08-23T05:57:50.674Z,945.00
2022-08-23T05:58:48.693Z,967.50
2022-08-23T05:59:49.366Z,961.88
2022-08-23T06:00:48.703Z,916.88
2022-08-23T06:01:50.243Z,888.75
2022-08-23T06:02:49.330Z,849.38
2022-08-23T06:03:49.327Z,855.00
2022-08-23T06:04:48.702Z,871.88
2022-08-23T06:05:48.627Z,871.88
2022-08-23T06:06:48.654Z,860.62
2022-08-23T06:07:49.389Z,849.38
2022-08-23T06:08:49.269Z,832.50
2022-08-23T06:09:48.611Z,832.50
2022-08-23T06:10:48.568Z,832.50
2022-08-23T06:11:48.567Z,838.12
2022-08-23T06:12:48.560Z,832.50
2022-08-23T06:13:49.236Z,843.75
2022-08-23T06:14:49.204Z,832.50
2022-08-23T06:15:49.529Z,832.50
2022-08-23T06:16:52.523Z,855.00
2022-08-23T06:17:48.470Z,871.88
2022-08-23T06:18:49.176Z,832.50
2022-08-23T06:19:49.151Z,815.62
2022-08-23T06:20:49.220Z,843.75
2022-08-23T06:21:49.162Z,849.38
2022-08-23T06:22:50.875Z,849.38
2022-08-23T06:23:49.105Z,866.25
2022-08-23T06:24:48.447Z,866.25
2022-08-23T06:25:49.082Z,894.38
2022-08-23T06:26:49.076Z,911.25
2022-08-23T06:27:49.069Z,871.88
2022-08-23T06:28:50.939Z,871.88
2022-08-23T06:29:49.036Z,911.25
2022-08-23T06:30:48.428Z,922.50
2022-08-23T06:31:48.376Z,911.25
2022-08-23T06:32:48.373Z,933.75
2022-08-23T06:33:48.501Z,967.50
2022-08-23T06:34:48.303Z,1012.50
2022-08-23T06:35:48.314Z,1040.62
2022-08-23T06:36:48.978Z,1068.75
2022-08-23T06:37:48.972Z,1046.25
2022-08-23T06:38:48.955Z,1023.75
2022-08-23T06:39:48.946Z,1001.25
2022-08-23T06:40:48.937Z,984.38
2022-08-23T06:41:48.240Z,1012.50
2022-08-23T06:42:48.902Z,995.62
2022-08-23T06:43:48.925Z,1170.00
2022-08-23T06:44:48.221Z,1175.62
2022-08-23T06:45:58.288Z,579.38
2022-08-23T06:46:49.249Z,742.50
2022-08-23T06:47:48.174Z,826.88
2022-08-23T06:48:48.853Z,1248.75
2022-08-23T06:49:55.403Z,1479.38
2022-08-23T06:50:50.625Z,1575.00
2022-08-23T06:51:48.814Z,1530.00
2022-08-23T06:52:48.804Z,1507.50
2022-08-23T06:53:48.105Z,1552.50
2022-08-23T06:54:48.793Z,1788.75
2022-08-23T06:55:48.776Z,1923.75
2022-08-23T06:56:50.078Z,2103.75
2022-08-23T06:57:48.762Z,1890.00
2022-08-23T06:58:48.058Z,1597.50
2022-08-23T06:59:48.065Z,1288.12
2022-08-23T07:00:48.068Z,1164.38
2022-08-23T07:01:48.783Z,1063.12
2022-08-23T07:02:50.146Z,978.75
2022-08-23T07:03:48.688Z,916.88
2022-08-23T07:04:48.689Z,860.62
2022-08-23T07:05:48.032Z,826.88
2022-08-23T07:06:47.969Z,804.38
2022-08-23T07:07:47.967Z,798.75
2022-08-23T07:08:50.418Z,798.75
2022-08-23T07:09:47.941Z,798.75
2022-08-23T07:10:47.966Z,798.75
2022-08-23T07:11:47.961Z,810.00
2022-08-23T07:12:48.593Z,815.62
2022-08-23T07:13:47.916Z,832.50
2022-08-23T07:14:48.566Z,894.38
2022-08-23T07:15:50.163Z,1012.50
2022-08-23T07:16:47.864Z,1147.50
2022-08-23T07:17:48.540Z,1282.50
2022-08-23T07:18:48.526Z,1321.88
2022-08-23T07:19:47.835Z,1338.75
2022-08-23T07:20:48.507Z,1417.50
2022-08-23T07:21:49.757Z,1468.12
2022-08-23T07:22:48.577Z,1569.38
2022-08-23T07:23:48.477Z,1648.12
2022-08-23T07:24:48.466Z,1665.00
2022-08-23T07:25:48.458Z,1614.38
2022-08-23T07:26:48.438Z,1513.12
2022-08-23T07:27:47.768Z,1597.50
2022-08-23T07:28:47.776Z,1648.12
2022-08-23T07:29:47.760Z,1771.88
2022-08-23T07:30:48.410Z,1828.12
2022-08-23T07:31:47.813Z,1850.62
2022-08-23T07:32:48.391Z,1811.25
2022-08-23T07:33:47.702Z,1895.62
2022-08-23T07:34:48.515Z,1906.88
2022-08-23T07:35:48.354Z,1794.38
2022-08-23T07:36:47.669Z,1856.25
2022-08-23T07:37:48.334Z,1850.62
2022-08-23T07:38:47.741Z,1856.25
2022-08-23T07:39:48.368Z,1980.00
2022-08-23T07:40:47.623Z,2025.00
2022-08-23T07:41:50.540Z,1980.00
2022-08-23T07:42:48.283Z,1974.38
2022-08-23T07:43:48.319Z,2008.12
2022-08-23T07:44:47.615Z,1985.62
2022-08-23T07:45:48.260Z,1935.00
2022-08-23T07:46:47.612Z,1968.75
2022-08-23T07:47:50.475Z,2120.62
2022-08-23T07:48:55.207Z,2064.38
2022-08-23T07:49:48.569Z,1968.75
2022-08-23T07:50:54.761Z,1951.88
2022-08-23T07:51:48.510Z,2109.38
2022-08-23T07:52:48.179Z,2300.62
2022-08-23T07:53:47.505Z,2424.38
2022-08-23T07:54:49.411Z,2491.88
2022-08-23T07:55:47.511Z,2458.12
2022-08-23T07:56:48.150Z,2486.25
2022-08-23T07:57:48.130Z,2283.75
2022-08-23T07:58:48.156Z,2401.88
2022-08-23T07:59:47.450Z,2362.50
2022-08-23T08:00:47.418Z,2092.50
2022-08-23T08:01:47.496Z,2356.88
2022-08-23T08:02:47.462Z,2542.50
2022-08-23T08:03:47.395Z,2452.50
2022-08-23T08:04:48.062Z,2401.88
2022-08-23T08:05:48.055Z,2671.88
2022-08-23T08:06:52.731Z,2598.75
2022-08-23T08:07:49.884Z,2441.25
2022-08-23T08:08:48.255Z,2604.38
2022-08-23T08:09:48.008Z,2671.88
2022-08-23T08:10:47.360Z,2390.62
2022-08-23T08:11:47.345Z,2407.50
2022-08-23T08:12:47.318Z,2745.00
2022-08-23T08:13:47.425Z,2716.88
2022-08-23T08:14:48.346Z,2604.38
2022-08-23T08:15:48.029Z,2671.88
2022-08-23T08:16:47.959Z,2660.62
2022-08-23T08:17:47.288Z,2491.88
2022-08-23T08:18:47.919Z,2351.25
2022-08-23T08:19:47.304Z,2396.25
2022-08-23T08:20:47.519Z,2525.62
2022-08-23T08:21:47.200Z,2643.75
2022-08-23T08:22:49.190Z,2716.88
2022-08-23T08:23:47.867Z,2677.50
2022-08-23T08:24:47.870Z,2700.00
2022-08-23T08:25:47.824Z,2632.50
2022-08-23T08:26:48.125Z,2559.38
2022-08-23T08:27:47.165Z,2666.25
2022-08-23T08:28:47.133Z,2745.00
2022-08-23T08:29:47.125Z,2846.25
2022-08-23T08:30:47.122Z,2812.50
2022-08-23T08:31:49.515Z,2874.38
2022-08-23T08:32:48.084Z,2818.12
2022-08-23T08:33:47.763Z,2880.00
2022-08-23T08:34:47.753Z,2953.12
2022-08-23T08:35:47.745Z,2964.38
2022-08-23T08:36:48.743Z,2902.50
2022-08-23T08:37:47.065Z,2953.12
2022-08-23T08:38:47.939Z,3037.50
2022-08-23T08:39:47.058Z,2986.88
2022-08-23T08:40:47.020Z,2992.50
2022-08-23T08:41:47.679Z,2908.12
2022-08-23T08:42:47.032Z,2851.88
2022-08-23T08:43:47.669Z,3043.12
2022-08-23T08:44:47.651Z,3206.25
2022-08-23T08:45:47.600Z,3189.38
2022-08-23T08:46:48.031Z,3093.75
2022-08-23T08:47:46.955Z,3150.00
2022-08-23T08:48:47.595Z,2666.25
2022-08-23T08:49:46.911Z,1552.50
2022-08-23T08:50:47.608Z,956.25
2022-08-23T08:51:47.572Z,832.50
2022-08-23T08:52:47.564Z,759.38
2022-08-23T08:53:47.566Z,697.50
2022-08-23T08:54:48.331Z,652.50
2022-08-23T08:55:47.552Z,613.12
2022-08-23T08:56:46.855Z,579.38
2022-08-23T08:57:47.518Z,556.88
2022-08-23T08:58:47.777Z,540.00
2022-08-23T08:59:46.816Z,523.12
2022-08-23T09:00:47.485Z,506.25
2022-08-23T09:01:48.664Z,495.00
2022-08-23T09:02:47.524Z,483.75
2022-08-23T09:03:47.455Z,472.50
2022-08-23T09:04:46.798Z,461.25
2022-08-23T09:05:47.440Z,455.62
2022-08-23T09:06:47.407Z,444.38
2022-08-23T09:07:47.430Z,438.75
2022-08-23T09:08:47.443Z,433.12
2022-08-23T09:09:47.402Z,421.88
2022-08-23T09:10:47.390Z,416.25
2022-08-23T09:11:47.394Z,410.62
2022-08-23T09:12:47.361Z,410.62
2022-08-23T09:13:46.734Z,410.62
2022-08-23T09:14:46.694Z,405.00
2022-08-23T09:15:46.696Z,399.38
2022-08-23T09:16:47.354Z,393.75
2022-08-23T09:17:47.333Z,388.12
2022-08-23T09:18:47.304Z,360.00
2022-08-23T09:19:47.310Z,343.12
2022-08-23T09:20:46.616Z,365.62
2022-08-23T09:21:46.620Z,365.62
2022-08-23T09:22:47.266Z,376.88
2022-08-23T09:23:47.264Z,376.88
2022-08-23T09:24:47.250Z,371.25
2022-08-23T09:25:47.248Z,371.25
2022-08-23T09:26:46.559Z,365.62
2022-08-23T09:27:47.218Z,365.62
2022-08-23T09:28:47.951Z,360.00
2022-08-23T09:29:46.531Z,360.00
2022-08-23T09:30:46.555Z,360.00
2022-08-23T09:31:46.592Z,365.62
2022-08-23T09:32:46.536Z,360.00
2022-08-23T09:33:47.151Z,348.75
2022-08-23T09:34:46.461Z,348.75
2022-08-23T09:35:47.134Z,354.38
2022-08-23T09:36:46.531Z,354.38
2022-08-23T09:37:47.112Z,348.75
2022-08-23T09:38:46.431Z,348.75
2022-08-23T09:39:47.133Z,348.75
2022-08-23T09:40:47.110Z,343.12
2022-08-23T09:41:47.355Z,343.12
2022-08-23T09:42:47.067Z,343.12
2022-08-23T09:43:46.394Z,343.12
2022-08-23T09:44:46.372Z,337.50
2022-08-23T09:45:46.375Z,337.50
2022-08-23T09:46:47.039Z,337.50
2022-08-23T09:47:47.017Z,343.12
2022-08-23T09:48:46.406Z,337.50
2022-08-23T09:49:46.333Z,337.50
2022-08-23T09:50:46.307Z,337.50
2022-08-23T09:51:46.981Z,337.50
2022-08-23T09:52:46.959Z,337.50
2022-08-23T09:53:46.963Z,331.88
2022-08-23T09:54:47.672Z,326.25
2022-08-23T09:55:46.931Z,326.25
2022-08-23T09:56:46.230Z,331.88
2022-08-23T09:57:46.264Z,331.88
2022-08-23T09:58:46.919Z,326.25
2022-08-23T09:59:46.902Z,326.25
2022-08-23T10:00:46.873Z,326.25
2022-08-23T10:01:46.894Z,326.25
2022-08-23T10:02:46.863Z,331.88
2022-08-23T10:03:46.226Z,331.88
2022-08-23T10:04:46.922Z,337.50
2022-08-23T10:05:46.834Z,343.12
2022-08-23T10:06:46.243Z,343.12
2022-08-23T10:07:46.825Z,337.50
2022-08-23T10:08:46.172Z,331.88
2022-08-23T10:09:46.807Z,331.88
2022-08-23T10:10:46.115Z,326.25
2022-08-23T10:11:46.773Z,337.50
2022-08-23T10:12:46.870Z,331.88
2022-08-23T10:13:46.074Z,348.75
2022-08-23T10:14:46.065Z,337.50
2022-08-23T10:15:46.113Z,348.75
2022-08-23T10:16:46.044Z,371.25
2022-08-23T10:17:46.718Z,365.62
2022-08-23T10:18:48.402Z,337.50
2022-08-23T10:19:47.881Z,337.50
2022-08-23T10:20:46.689Z,343.12
2022-08-23T10:21:46.680Z,393.75
2022-08-23T10:22:46.672Z,405.00
2022-08-23T10:23:46.653Z,405.00
2022-08-23T10:24:46.651Z,405.00
2022-08-23T10:25:45.958Z,388.12
2022-08-23T10:26:45.955Z,410.62
2022-08-23T10:27:45.934Z,427.50
2022-08-23T10:28:46.615Z,438.75
2022-08-23T10:29:45.953Z,438.75
2022-08-23T10:30:46.624Z,472.50
2022-08-23T10:31:46.581Z,534.38
2022-08-23T10:32:45.886Z,534.38
2022-08-23T10:33:46.558Z,579.38
2022-08-23T10:34:50.438Z,646.88
2022-08-23T10:35:45.927Z,787.50
2022-08-23T10:36:45.928Z,1726.88
2022-08-23T10:37:48.740Z,3048.75
2022-08-23T10:38:45.818Z,3166.88
2022-08-23T10:39:48.312Z,2683.12
2022-08-23T10:40:46.490Z,2469.38
2022-08-23T10:41:45.798Z,911.25
2022-08-23T10:42:46.767Z,354.38
2022-08-23T10:43:46.468Z,309.38
2022-08-23T10:44:45.788Z,281.25
2022-08-23T10:45:45.755Z,286.88
2022-08-23T10:46:45.773Z,292.50
2022-08-23T10:47:45.748Z,286.88
2022-08-23T10:48:45.771Z,286.88
2022-08-23T10:49:45.769Z,253.12
2022-08-23T10:50:45.702Z,253.12
2022-08-23T10:51:47.371Z,264.38
2022-08-23T10:52:45.683Z,275.62
2022-08-23T10:53:46.356Z,275.62
2022-08-23T10:54:45.709Z,275.62
2022-08-23T10:55:45.654Z,275.62
2022-08-23T10:56:51.214Z,275.62
2022-08-23T10:57:48.069Z,264.38
2022-08-23T10:58:47.553Z,270.00
2022-08-23T10:59:48.431Z,281.25
2022-08-23T11:00:45.637Z,281.25
2022-08-23T11:01:45.687Z,286.88
2022-08-23T11:02:46.283Z,298.12
2022-08-23T11:03:46.248Z,298.12
2022-08-23T11:04:46.240Z,303.75
2022-08-23T11:05:46.229Z,303.75
2022-08-23T11:06:45.576Z,298.12
2022-08-23T11:07:45.547Z,315.00
2022-08-23T11:08:47.973Z,326.25
2022-08-23T11:09:45.509Z,326.25
2022-08-23T11:10:56.134Z,320.62
2022-08-23T11:11:49.349Z,315.00
2022-08-23T11:12:45.498Z,286.88
2022-08-23T11:13:45.463Z,275.62
2022-08-23T11:14:46.143Z,264.38
2022-08-23T11:15:47.436Z,264.38
2022-08-23T11:16:46.104Z,264.38
2022-08-23T11:17:45.474Z,264.38
2022-08-23T11:18:46.099Z,253.12
2022-08-23T11:19:45.405Z,258.75
2022-08-23T11:20:45.404Z,253.12
2022-08-23T11:21:46.066Z,253.12
2022-08-23T11:22:45.394Z,253.12
2022-08-23T11:23:45.437Z,253.12
2022-08-23T11:24:45.346Z,253.12
2022-08-23T11:25:45.360Z,247.50
2022-08-23T11:26:45.348Z,241.88
2022-08-23T11:27:45.317Z,241.88
2022-08-23T11:28:45.988Z,236.25
2022-08-23T11:29:45.987Z,236.25
2022-08-23T11:30:45.345Z,236.25
2022-08-23T11:31:45.958Z,236.25
2022-08-23T11:32:45.289Z,230.62
2022-08-23T11:33:45.264Z,236.25
2022-08-23T11:34:45.929Z,236.25
2022-08-23T11:35:45.320Z,236.25
2022-08-23T11:36:45.214Z,241.88
2022-08-23T11:37:45.285Z,247.50
2022-08-23T11:38:45.204Z,253.12
2022-08-23T11:39:45.915Z,236.25
2022-08-23T11:40:45.192Z,213.75
2022-08-23T11:41:45.870Z,219.38
2022-08-23T11:42:45.152Z,241.88
2022-08-23T11:43:45.161Z,247.50
2022-08-23T11:44:45.823Z,247.50
2022-08-23T11:45:45.137Z,247.50
2022-08-23T11:46:45.801Z,247.50
2022-08-23T11:47:45.815Z,241.88
2022-08-23T11:48:45.096Z,241.88
2022-08-23T11:49:45.110Z,247.50
2022-08-23T11:50:45.081Z,247.50
2022-08-23T11:51:45.754Z,253.12
2022-08-23T11:52:45.045Z,247.50
2022-08-23T11:53:45.736Z,247.50
2022-08-23T11:54:45.036Z,241.88
2022-08-23T11:55:45.029Z,241.88
2022-08-23T11:56:46.426Z,236.25
2022-08-23T11:57:45.020Z,230.62
2022-08-23T11:58:44.989Z,225.00
2022-08-23T11:59:45.032Z,230.62
2022-08-23T12:00:44.980Z,225.00
2022-08-23T12:01:45.657Z,213.75
2022-08-23T12:02:45.064Z,208.12
2022-08-23T12:03:46.084Z,213.75
2022-08-23T12:04:45.623Z,213.75
2022-08-23T12:05:45.612Z,202.50
2022-08-23T12:06:51.133Z,208.12
2022-08-23T12:07:45.901Z,219.38
2022-08-23T12:08:44.893Z,219.38
2022-08-23T12:09:45.566Z,213.75
2022-08-23T12:10:45.553Z,219.38
2022-08-23T12:11:44.924Z,225.00
2022-08-23T12:12:47.454Z,219.38
2022-08-23T12:13:45.540Z,219.38
2022-08-23T12:14:44.835Z,219.38
2022-08-23T12:15:46.303Z,236.25
2022-08-23T12:16:50.036Z,241.88
2022-08-23T12:17:45.576Z,253.12
2022-08-23T12:18:47.839Z,258.75
2022-08-23T12:19:45.457Z,253.12
2022-08-23T12:20:48.627Z,247.50
2022-08-23T12:21:45.448Z,258.75
2022-08-23T12:22:44.761Z,264.38
2022-08-23T12:23:47.932Z,264.38
2022-08-23T12:24:44.720Z,270.00
2022-08-23T12:25:45.668Z,270.00
2022-08-23T12:26:44.720Z,286.88
2022-08-23T12:27:44.732Z,281.25
2022-08-23T12:28:45.374Z,281.25
2022-08-23T12:29:44.712Z,281.25
2022-08-23T12:30:44.866Z,281.25
2022-08-23T12:31:45.405Z,281.25
2022-08-23T12:32:45.582Z,281.25
2022-08-23T12:33:45.864Z,275.62
2022-08-23T12:34:47.236Z,275.62
2022-08-23T12:35:47.183Z,275.62
2022-08-23T12:36:45.603Z,270.00
2022-08-23T12:37:47.036Z,281.25
2022-08-23T12:38:47.019Z,281.25
2022-08-23T12:39:47.074Z,281.25
2022-08-23T12:40:45.527Z,286.88
2022-08-23T12:41:45.239Z,298.12
2022-08-23T12:42:45.238Z,303.75
2022-08-23T12:43:44.568Z,303.75